createdAt,value
2024-03-29T00:00:52.961Z,52.96
2024-03-29T00:03:50.144Z,53.07
2024-03-29T00:06:47.630Z,52.99
2024-03-29T00:09:44.990Z,53.01
2024-03-29T00:12:42.679Z,52.87
2024-03-29T00:15:39.854Z,52.95
2024-03-29T00:18:37.326Z,52.87
2024-03-29T00:21:34.888Z,52.99
2024-03-29T00:24:32.254Z,53.19
2024-03-29T00:27:29.638Z,53.08
2024-03-29T00:30:27.017Z,53.05
2024-03-29T00:33:24.170Z,53.07
2024-03-29T00:36:21.825Z,53.06
2024-03-29T00:39:19.034Z,53.17
2024-03-29T00:42:16.711Z,53.15
2024-03-29T00:45:25.626Z,53.19
2024-03-29T00:48:30.043Z,53.23
2024-03-29T00:51:29.757Z,53.19
2024-03-29T00:54:27.481Z,53.25
2024-03-29T00:57:24.756Z,53.25
2024-03-29T01:00:23.515Z,53.18
2024-03-29T01:03:21.329Z,53.15
2024-03-29T01:06:18.822Z,53.18
2024-03-29T01:09:16.141Z,53.16
2024-03-29T01:12:13.628Z,53.19
2024-03-29T01:15:10.782Z,53.21
2024-03-29T01:18:08.247Z,53.20
2024-03-29T01:21:05.951Z,53.19
2024-03-29T01:24:03.593Z,53.30
2024-03-29T01:27:01.375Z,53.50
2024-03-29T01:29:58.531Z,53.74
2024-03-29T01:32:56.018Z,54.09
2024-03-29T01:35:53.194Z,54.49
2024-03-29T01:38:53.533Z,54.91
2024-03-29T01:41:51.008Z,55.13
2024-03-29T01:44:48.230Z,55.36
2024-03-29T01:47:45.715Z,55.54
2024-03-29T01:50:42.962Z,55.74
2024-03-29T01:53:40.542Z,55.84
2024-03-29T01:56:37.924Z,56.18
2024-03-29T01:59:35.349Z,56.60
2024-03-29T02:02:33.347Z,56.58
2024-03-29T02:05:30.896Z,57.35
2024-03-29T02:08:28.103Z,57.52
2024-03-29T02:11:25.798Z,57.57
2024-03-29T02:14:22.981Z,57.85
2024-03-29T02:17:20.618Z,58.27
2024-03-29T02:20:33.414Z,58.30
2024-03-29T02:23:35.615Z,58.40
2024-03-29T02:26:36.886Z,58.79
2024-03-29T02:29:34.213Z,59.20
2024-03-29T02:32:31.722Z,59.58
2024-03-29T02:35:29.275Z,59.67
2024-03-29T02:38:26.800Z,60.05
2024-03-29T02:41:23.985Z,60.38
2024-03-29T02:44:21.334Z,60.70
2024-03-29T02:47:18.521Z,61.01
2024-03-29T02:50:15.920Z,61.18
2024-03-29T02:53:13.627Z,61.26
2024-03-29T02:56:11.152Z,61.64
2024-03-29T02:59:08.365Z,62.05
2024-03-29T03:02:06.026Z,62.26
2024-03-29T03:05:03.206Z,62.68
2024-03-29T03:08:18.594Z,62.80
2024-03-29T03:11:15.807Z,63.07
2024-03-29T03:14:13.931Z,63.35
2024-03-29T03:17:11.149Z,63.39
2024-03-29T03:20:10.507Z,63.70
2024-03-29T03:23:07.756Z,64.26
2024-03-29T03:26:05.648Z,64.36
2024-03-29T03:29:03.146Z,64.57
2024-03-29T03:32:00.755Z,64.77
2024-03-29T03:34:57.928Z,64.82
2024-03-29T03:37:55.397Z,65.05
2024-03-29T03:40:52.572Z,65.14
2024-03-29T03:43:50.190Z,65.37
2024-03-29T03:46:47.362Z,65.56
2024-03-29T03:49:44.898Z,65.65
2024-03-29T03:52:42.284Z,65.79
2024-03-29T03:55:39.705Z,66.06
2024-03-29T03:58:37.000Z,66.08
2024-03-29T04:01:34.397Z,66.02
2024-03-29T04:04:31.714Z,66.28
2024-03-29T04:07:29.276Z,66.40
2024-03-29T04:10:26.441Z,66.33
2024-03-29T04:13:23.966Z,66.54
2024-03-29T04:16:21.118Z,66.77
2024-03-29T04:19:18.579Z,66.67
2024-03-29T04:22:15.751Z,67.05
2024-03-29T04:25:13.188Z,67.25
2024-03-29T04:28:10.383Z,67.48
2024-03-29T04:31:07.761Z,67.59
2024-03-29T04:34:04.919Z,67.71
2024-03-29T04:37:02.303Z,67.82
2024-03-29T04:39:59.484Z,67.85
2024-03-29T04:42:56.834Z,67.99
2024-03-29T04:45:54.004Z,68.19
2024-03-29T04:48:51.637Z,68.36
2024-03-29T04:51:49.033Z,68.47
2024-03-29T04:54:46.553Z,68.10
2024-03-29T04:57:43.740Z,68.58
2024-03-29T05:00:41.175Z,68.82
2024-03-29T05:03:38.329Z,68.84
2024-03-29T05:06:35.678Z,69.05
2024-03-29T05:09:32.869Z,69.30
2024-03-29T05:12:30.528Z,69.38
2024-03-29T05:15:28.051Z,69.52
2024-03-29T05:18:25.417Z,69.72
2024-03-29T05:21:22.967Z,69.86
2024-03-29T05:24:20.180Z,70.01
2024-03-29T05:27:17.790Z,70.19
2024-03-29T05:30:15.242Z,70.37
2024-03-29T05:33:12.742Z,70.49
2024-03-29T05:36:11.643Z,70.68
2024-03-29T05:39:09.192Z,70.73
2024-03-29T05:42:06.378Z,70.65
2024-03-29T05:45:04.220Z,70.71
2024-03-29T05:48:01.377Z,70.71
2024-03-29T05:50:58.912Z,70.55
2024-03-29T05:53:57.517Z,70.16
2024-03-29T05:56:55.875Z,69.80
2024-03-29T05:59:53.582Z,69.14
2024-03-29T06:02:51.323Z,68.47
2024-03-29T06:05:49.077Z,67.73
2024-03-29T06:08:46.367Z,66.82
2024-03-29T06:11:44.000Z,66.11
2024-03-29T06:14:59.105Z,65.51
2024-03-29T06:17:56.634Z,64.87
2024-03-29T06:20:53.795Z,63.93
2024-03-29T06:23:51.256Z,63.06
2024-03-29T06:26:48.670Z,62.23
2024-03-29T06:29:46.081Z,61.26
2024-03-29T06:32:43.253Z,60.46
2024-03-29T06:35:40.769Z,59.03
2024-03-29T06:38:38.071Z,58.03
2024-03-29T06:41:35.500Z,56.44
2024-03-29T06:44:32.701Z,54.96
2024-03-29T06:47:30.221Z,52.96
2024-03-29T06:50:27.419Z,51.71
2024-03-29T06:53:24.822Z,50.88
2024-03-29T06:56:21.991Z,49.69
2024-03-29T06:59:19.529Z,47.58
2024-03-29T07:02:17.144Z,46.46
2024-03-29T07:05:14.701Z,45.36
2024-03-29T07:08:11.949Z,43.79
2024-03-29T07:11:09.298Z,42.89
2024-03-29T07:14:06.561Z,41.88
2024-03-29T07:17:04.176Z,41.22
2024-03-29T07:20:01.357Z,41.03
2024-03-29T07:22:59.219Z,40.18
2024-03-29T07:25:56.387Z,40.19
2024-03-29T07:28:53.845Z,39.86
2024-03-29T07:31:51.006Z,40.51
2024-03-29T07:34:48.449Z,40.61
2024-03-29T07:37:48.880Z,41.04
2024-03-29T07:40:46.557Z,40.88
2024-03-29T07:43:43.712Z,40.48
2024-03-29T07:46:41.577Z,40.22
2024-03-29T07:49:38.813Z,40.03
2024-03-29T07:52:36.283Z,38.69
2024-03-29T07:55:33.476Z,38.61
2024-03-29T07:58:31.200Z,37.80
2024-03-29T08:01:40.952Z,37.58
2024-03-29T08:04:40.309Z,37.15
2024-03-29T08:07:37.500Z,36.89
2024-03-29T08:10:34.976Z,36.60
2024-03-29T08:13:32.145Z,36.64
2024-03-29T08:16:29.574Z,35.84
2024-03-29T08:19:26.935Z,35.62
2024-03-29T08:22:24.115Z,34.89
2024-03-29T08:25:21.659Z,34.11
2024-03-29T08:28:18.863Z,33.47
2024-03-29T08:31:16.361Z,32.44
2024-03-29T08:34:14.903Z,31.76
2024-03-29T08:37:13.230Z,30.87
2024-03-29T08:40:10.414Z,29.92
2024-03-29T08:43:07.893Z,29.20
2024-03-29T08:46:05.074Z,28.52
2024-03-29T08:49:02.578Z,27.60
2024-03-29T08:52:03.091Z,27.07
2024-03-29T08:55:00.652Z,26.71
2024-03-29T08:57:59.356Z,25.87
2024-03-29T09:00:57.515Z,25.27
2024-03-29T09:03:54.691Z,24.71
2024-03-29T09:06:52.148Z,24.18
2024-03-29T09:09:49.346Z,23.51
2024-03-29T09:12:46.698Z,22.85
2024-03-29T09:15:44.266Z,22.12
2024-03-29T09:18:41.765Z,21.47
2024-03-29T09:21:38.948Z,21.19
2024-03-29T09:24:36.541Z,21.14
2024-03-29T09:27:36.576Z,20.78
2024-03-29T09:30:34.096Z,20.42
2024-03-29T09:33:31.341Z,20.02
2024-03-29T09:36:28.780Z,20.21
2024-03-29T09:39:25.953Z,19.92
2024-03-29T09:42:23.593Z,19.83
2024-03-29T09:45:20.771Z,19.59
2024-03-29T09:48:18.266Z,19.40
2024-03-29T09:51:16.001Z,19.34
2024-03-29T09:54:14.050Z,19.56
2024-03-29T09:57:11.510Z,19.77
2024-03-29T10:00:09.383Z,19.53
2024-03-29T10:03:06.986Z,19.65
2024-03-29T10:06:04.571Z,19.94
2024-03-29T10:09:01.783Z,20.05
2024-03-29T10:11:59.246Z,20.23
2024-03-29T10:15:06.016Z,20.21
2024-03-29T10:18:04.062Z,20.24
2024-03-29T10:21:01.960Z,20.66
2024-03-29T10:23:59.301Z,20.61
2024-03-29T10:26:56.525Z,20.57
2024-03-29T10:29:54.008Z,21.02
2024-03-29T10:32:51.164Z,21.22
2024-03-29T10:35:50.115Z,21.38
2024-03-29T10:38:47.547Z,21.73
2024-03-29T10:41:45.015Z,22.01
2024-03-29T10:44:42.440Z,21.91
2024-03-29T10:47:39.604Z,22.28
2024-03-29T10:50:37.058Z,23.00
2024-03-29T10:53:34.510Z,23.64
2024-03-29T10:56:31.746Z,24.50
2024-03-29T10:59:29.190Z,25.63
2024-03-29T11:02:26.382Z,26.54
2024-03-29T11:05:23.844Z,27.54
2024-03-29T11:08:21.126Z,28.12
2024-03-29T11:11:18.566Z,29.04
2024-03-29T11:14:15.742Z,29.63
2024-03-29T11:17:16.068Z,29.97
2024-03-29T11:20:16.312Z,29.98
2024-03-29T11:23:13.828Z,30.03
2024-03-29T11:26:10.994Z,29.64
2024-03-29T11:29:08.379Z,29.33
2024-03-29T11:32:06.455Z,29.31
2024-03-29T11:35:04.503Z,29.28
2024-03-29T11:38:02.092Z,29.26
2024-03-29T11:40:59.281Z,29.31
2024-03-29T11:43:56.792Z,29.24
2024-03-29T11:46:54.368Z,29.11
2024-03-29T11:49:51.786Z,28.46
2024-03-29T11:52:48.986Z,27.85
2024-03-29T11:55:46.438Z,27.63
2024-03-29T11:58:43.974Z,27.83
2024-03-29T12:01:41.847Z,28.21
2024-03-29T12:04:39.192Z,28.73
2024-03-29T12:07:36.597Z,29.09
2024-03-29T12:10:34.132Z,29.50
2024-03-29T12:13:31.304Z,29.94
2024-03-29T12:16:28.848Z,29.53
2024-03-29T12:19:26.117Z,28.98
2024-03-29T12:22:23.673Z,28.17
2024-03-29T12:25:20.852Z,27.33
2024-03-29T12:28:18.196Z,26.84
2024-03-29T12:31:16.044Z,25.92
2024-03-29T12:34:13.558Z,25.94
2024-03-29T12:37:11.600Z,25.81
2024-03-29T12:40:13.766Z,25.69
2024-03-29T12:43:11.294Z,25.76
2024-03-29T12:46:08.495Z,25.77
2024-03-29T12:49:06.397Z,25.97
2024-03-29T12:52:03.564Z,26.24
2024-03-29T12:55:01.049Z,26.52
2024-03-29T12:57:58.241Z,27.10
2024-03-29T13:00:55.632Z,27.45
2024-03-29T13:03:53.086Z,27.54
2024-03-29T13:06:50.285Z,27.99
2024-03-29T13:09:47.840Z,28.30
2024-03-29T13:12:45.056Z,28.42
2024-03-29T13:15:43.824Z,28.46
2024-03-29T13:18:41.052Z,28.57
2024-03-29T13:21:38.524Z,28.49
2024-03-29T13:24:35.751Z,28.55
2024-03-29T13:27:34.749Z,28.41
2024-03-29T13:30:32.492Z,28.34
2024-03-29T13:33:30.249Z,28.10
2024-03-29T13:36:27.420Z,27.96
2024-03-29T13:39:26.004Z,27.80
2024-03-29T13:42:23.703Z,27.44
2024-03-29T13:45:21.465Z,27.34
2024-03-29T13:48:19.357Z,26.06
2024-03-29T13:51:16.790Z,25.96
2024-03-29T13:54:14.334Z,25.65
2024-03-29T13:57:12.929Z,25.54
2024-03-29T14:00:14.624Z,25.38
2024-03-29T14:03:11.829Z,25.11
2024-03-29T14:06:09.213Z,24.98
2024-03-29T14:09:06.537Z,24.91
2024-03-29T14:12:04.469Z,24.64
2024-03-29T14:15:01.987Z,24.50
2024-03-29T14:17:59.444Z,24.39
2024-03-29T14:20:58.260Z,24.13
2024-03-29T14:23:56.085Z,23.97
2024-03-29T14:26:53.485Z,23.72
2024-03-29T14:29:50.872Z,23.90
2024-03-29T14:32:57.924Z,23.46
2024-03-29T14:36:01.553Z,23.40
2024-03-29T14:38:58.722Z,23.21
2024-03-29T14:41:56.316Z,22.80
2024-03-29T14:44:53.479Z,23.26
2024-03-29T14:47:51.044Z,23.22
2024-03-29T14:50:48.237Z,23.40
2024-03-29T14:53:52.877Z,23.53
2024-03-29T14:56:50.256Z,23.48
2024-03-29T14:59:47.949Z,23.14
2024-03-29T15:02:46.327Z,23.00
2024-03-29T15:05:43.688Z,23.12
2024-03-29T15:08:40.875Z,23.08
2024-03-29T15:11:38.277Z,23.36
2024-03-29T15:14:36.180Z,23.53
2024-03-29T15:17:33.553Z,23.75
2024-03-29T15:20:31.082Z,24.08
2024-03-29T15:23:28.339Z,24.61
2024-03-29T15:26:26.411Z,25.15
2024-03-29T15:29:23.606Z,25.55
2024-03-29T15:32:21.616Z,25.97
2024-03-29T15:35:18.813Z,26.37
2024-03-29T15:38:21.165Z,26.64
2024-03-29T15:41:18.332Z,26.95
2024-03-29T15:44:17.442Z,27.42
2024-03-29T15:47:15.812Z,27.62
2024-03-29T15:50:13.652Z,27.69
2024-03-29T15:53:10.834Z,27.69
2024-03-29T15:56:08.684Z,27.76
2024-03-29T15:59:06.073Z,27.95
2024-03-29T16:02:03.237Z,28.15
2024-03-29T16:05:00.665Z,28.34
2024-03-29T16:07:58.080Z,28.64
2024-03-29T16:10:55.550Z,28.73
2024-03-29T16:13:52.955Z,28.85
2024-03-29T16:16:50.534Z,29.11
2024-03-29T16:19:47.743Z,29.58
2024-03-29T16:22:45.413Z,29.90
2024-03-29T16:25:44.730Z,30.64
2024-03-29T16:28:41.902Z,31.38
2024-03-29T16:31:39.240Z,31.97
2024-03-29T16:34:36.409Z,32.52
2024-03-29T16:37:33.899Z,33.12
2024-03-29T16:40:31.076Z,33.23
2024-03-29T16:43:28.571Z,34.04
2024-03-29T16:46:25.752Z,34.77
2024-03-29T16:49:23.190Z,34.67
2024-03-29T16:52:22.291Z,35.15
2024-03-29T16:55:19.729Z,35.46
2024-03-29T16:58:17.087Z,35.75
2024-03-29T17:01:14.868Z,36.00
2024-03-29T17:04:12.054Z,36.15
2024-03-29T17:07:09.967Z,36.12
2024-03-29T17:10:07.172Z,36.60
2024-03-29T17:13:05.214Z,36.96
2024-03-29T17:16:03.369Z,37.03
2024-03-29T17:19:00.869Z,37.37
2024-03-29T17:21:58.309Z,37.57
2024-03-29T17:24:55.789Z,37.83
2024-03-29T17:27:53.340Z,38.42
2024-03-29T17:30:50.518Z,38.75
2024-03-29T17:33:47.945Z,39.22
2024-03-29T17:36:45.121Z,39.80
2024-03-29T17:39:42.561Z,40.02
2024-03-29T17:42:39.750Z,40.11
2024-03-29T17:45:39.499Z,40.84
2024-03-29T17:48:37.515Z,40.94
2024-03-29T17:51:35.981Z,41.75
2024-03-29T17:54:33.155Z,41.97
2024-03-29T17:57:30.588Z,42.46
2024-03-29T18:00:27.813Z,42.99
2024-03-29T18:03:26.149Z,43.37
2024-03-29T18:06:23.349Z,43.81
2024-03-29T18:09:20.844Z,44.37
2024-03-29T18:12:17.994Z,44.70
2024-03-29T18:15:15.370Z,45.17
2024-03-29T18:18:12.536Z,45.52
2024-03-29T18:21:09.963Z,45.93
2024-03-29T18:24:07.116Z,46.22
2024-03-29T18:27:04.728Z,46.49
2024-03-29T18:30:01.945Z,46.64
2024-03-29T18:32:59.494Z,46.78
2024-03-29T18:35:59.565Z,47.27
2024-03-29T18:38:57.022Z,47.43
2024-03-29T18:41:54.736Z,47.84
2024-03-29T18:44:52.135Z,48.12
2024-03-29T18:47:49.313Z,48.56
2024-03-29T18:50:46.724Z,48.75
2024-03-29T18:53:45.483Z,49.42
2024-03-29T18:56:42.971Z,49.78
2024-03-29T18:59:40.518Z,50.14
2024-03-29T19:02:37.844Z,50.50
2024-03-29T19:05:35.475Z,50.68
2024-03-29T19:08:32.706Z,50.84
2024-03-29T19:11:30.308Z,51.33
2024-03-29T19:14:27.742Z,51.58
2024-03-29T19:17:25.326Z,51.80
2024-03-29T19:20:22.501Z,52.12
2024-03-29T19:23:20.586Z,52.55
2024-03-29T19:26:17.804Z,52.79
2024-03-29T19:29:15.224Z,52.88
2024-03-29T19:32:12.384Z,53.47
2024-03-29T19:35:09.847Z,53.84
2024-03-29T19:38:07.515Z,54.17
2024-03-29T19:41:04.705Z,54.27
2024-03-29T19:44:03.986Z,54.47
2024-03-29T19:47:01.363Z,54.67
2024-03-29T19:49:58.910Z,54.95
2024-03-29T19:52:56.088Z,55.18
2024-03-29T19:55:53.606Z,55.49
2024-03-29T19:58:51.059Z,55.57
2024-03-29T20:01:48.231Z,55.75
2024-03-29T20:04:45.688Z,56.11
2024-03-29T20:07:42.867Z,56.12
2024-03-29T20:10:41.122Z,56.49
2024-03-29T20:13:38.635Z,56.68
2024-03-29T20:16:35.877Z,57.05
2024-03-29T20:19:33.494Z,57.31
2024-03-29T20:22:30.871Z,57.64
2024-03-29T20:25:28.035Z,57.91
2024-03-29T20:28:26.630Z,57.87
2024-03-29T20:31:24.286Z,57.98
2024-03-29T20:34:22.095Z,58.17
2024-03-29T20:37:20.584Z,58.21
2024-03-29T20:40:18.101Z,58.49
2024-03-29T20:43:16.914Z,58.78
2024-03-29T20:46:14.361Z,58.99
2024-03-29T20:49:12.310Z,59.05
2024-03-29T20:52:10.259Z,59.26
2024-03-29T20:55:08.194Z,59.48
2024-03-29T20:58:07.175Z,59.59
2024-03-29T21:01:04.391Z,59.94
2024-03-29T21:04:19.662Z,60.03
2024-03-29T21:07:17.217Z,60.00
2024-03-29T21:10:14.422Z,60.22
2024-03-29T21:13:11.738Z,60.52
2024-03-29T21:16:09.347Z,60.65
2024-03-29T21:19:08.395Z,60.92
2024-03-29T21:22:06.197Z,61.06
2024-03-29T21:25:05.746Z,61.13
2024-03-29T21:28:04.586Z,61.47
2024-03-29T21:31:02.063Z,61.60
2024-03-29T21:33:59.263Z,61.71
2024-03-29T21:36:56.850Z,61.93
2024-03-29T21:39:54.038Z,62.28
2024-03-29T21:42:51.595Z,62.49
2024-03-29T21:45:48.776Z,62.23
2024-03-29T21:48:46.276Z,62.33
2024-03-29T21:51:43.747Z,62.38
2024-03-29T21:54:41.028Z,62.49
2024-03-29T21:57:38.393Z,62.49
2024-03-29T22:00:35.887Z,62.64
2024-03-29T22:03:33.276Z,62.77
2024-03-29T22:06:31.493Z,62.87
2024-03-29T22:09:29.142Z,62.82
2024-03-29T22:12:27.704Z,62.94
2024-03-29T22:15:25.158Z,63.08
2024-03-29T22:18:22.615Z,63.35
2024-03-29T22:21:20.241Z,63.47
2024-03-29T22:24:18.190Z,63.42
2024-03-29T22:27:15.751Z,63.48
2024-03-29T22:30:12.958Z,63.55
2024-03-29T22:33:10.414Z,63.63
2024-03-29T22:36:07.578Z,63.73
2024-03-29T22:39:05.149Z,63.99
2024-03-29T22:42:02.350Z,64.06
2024-03-29T22:44:59.767Z,64.19
2024-03-29T22:47:56.976Z,64.37
2024-03-29T22:50:54.482Z,64.51
2024-03-29T22:53:51.866Z,64.43
2024-03-29T22:56:49.418Z,64.36
2024-03-29T22:59:46.800Z,64.26
2024-03-29T23:02:44.071Z,64.60
2024-03-29T23:05:41.491Z,64.94
2024-03-29T23:08:38.708Z,65.11
2024-03-29T23:11:36.184Z,65.08
2024-03-29T23:14:34.048Z,65.10
2024-03-29T23:17:32.115Z,64.96
2024-03-29T23:20:29.274Z,65.09
2024-03-29T23:23:27.071Z,65.15
2024-03-29T23:26:24.525Z,65.28
2024-03-29T23:29:22.068Z,65.37
2024-03-29T23:32:19.639Z,65.20
2024-03-29T23:35:16.818Z,65.38
2024-03-29T23:38:14.353Z,65.45
2024-03-29T23:41:11.522Z,65.42
2024-03-29T23:44:08.861Z,65.40
2024-03-29T23:47:06.319Z,65.41
2024-03-29T23:50:05.038Z,65.33
2024-03-29T23:53:02.662Z,65.47
2024-03-29T23:55:59.821Z,65.47
2024-03-29T23:58:57.371Z,65.55
